Terminal Aerodrome Forecast
Issued by NWS

Home | Current Version | Previous Version | Text Only | Print | Product List | Glossary On
Versions: 1 2 3 4 5 6 7 8 9 10 11 12 13 14 15
077
FTUS46 KSTO 240539
TAFSCK
TAF
KSCK 240539Z 2406/2506 14005KT P6SM BKN050 OVC100
     FM241800 14012KT P6SM -RA OVC050
     FM242000 14014G24KT 5SM -RA OVC025
     FM250000 13013G23KT 4SM -RA BR OVC015=

USA.gov is the U.S. government's official web portal to all federal, state and local government web resources and services.